createdAt,value
2022-08-02T00:00:28.557Z,5.13
2022-08-02T00:02:55.760Z,5.28
2022-08-02T00:05:23.493Z,4.93
2022-08-02T00:07:50.758Z,5.28
2022-08-02T00:10:17.887Z,4.90
2022-08-02T00:12:45.012Z,4.45
2022-08-02T00:15:15.962Z,4.90
2022-08-02T00:17:44.647Z,4.70
2022-08-02T00:20:13.745Z,4.75
2022-08-02T00:22:40.866Z,4.65
2022-08-02T00:25:08.493Z,4.43
2022-08-02T00:27:35.769Z,5.10
2022-08-02T00:30:02.958Z,3.95
2022-08-02T00:32:31.917Z,4.45
2022-08-02T00:34:59.073Z,4.05
2022-08-02T00:37:26.523Z,5.25
2022-08-02T00:39:53.793Z,4.53
2022-08-02T00:42:20.940Z,4.45
2022-08-02T00:44:48.045Z,4.25
2022-08-02T00:47:19.053Z,4.15
2022-08-02T00:49:47.292Z,3.67
2022-08-02T00:52:14.856Z,3.40
2022-08-02T00:54:43.674Z,4.47
2022-08-02T00:57:10.770Z,3.88
2022-08-02T00:59:38.002Z,4.32
2022-08-02T01:02:05.705Z,4.28
2022-08-02T01:04:33.079Z,4.30
2022-08-02T01:07:01.675Z,4.30
2022-08-02T01:09:29.233Z,5.28
2022-08-02T01:11:56.416Z,4.35
2022-08-02T01:14:25.383Z,4.90
2022-08-02T01:17:09.585Z,4.22
2022-08-02T01:19:46.064Z,4.53
2022-08-02T01:23:00.128Z,4.15
2022-08-02T01:25:52.435Z,4.90
2022-08-02T01:28:43.582Z,4.53
2022-08-02T01:31:22.316Z,5.47
2022-08-02T01:33:54.876Z,4.32
2022-08-02T01:36:24.079Z,5.00
2022-08-02T01:38:53.618Z,4.50
2022-08-02T01:41:24.166Z,4.45
2022-08-02T01:43:55.715Z,5.15
2022-08-02T01:46:24.654Z,4.40
2022-08-02T01:48:54.768Z,4.50
2022-08-02T01:51:41.511Z,4.63
2022-08-02T01:54:15.792Z,4.15
2022-08-02T01:56:44.759Z,4.60
2022-08-02T01:59:14.940Z,4.75
2022-08-02T02:01:43.112Z,5.43
2022-08-02T02:04:10.782Z,4.95
2022-08-02T02:06:39.231Z,5.32
2022-08-02T02:09:06.792Z,5.28
2022-08-02T02:12:08.683Z,5.15
2022-08-02T02:14:23.095Z,4.72
2022-08-02T02:16:50.559Z,5.18
2022-08-02T02:19:21.303Z,5.03
2022-08-02T02:21:50.052Z,5.10
2022-08-02T02:24:17.957Z,5.07
2022-08-02T02:26:52.141Z,4.57
2022-08-02T02:29:25.329Z,4.90
2022-08-02T02:31:55.444Z,4.05
2022-08-02T02:34:33.784Z,4.80
2022-08-02T02:37:04.892Z,3.80
2022-08-02T02:39:33.761Z,3.78
2022-08-02T02:42:03.980Z,3.80
2022-08-02T02:44:33.556Z,4.45
2022-08-02T02:47:02.173Z,3.97
2022-08-02T02:49:35.369Z,4.85
2022-08-02T02:52:05.612Z,4.25
2022-08-02T02:54:35.361Z,4.22
2022-08-02T02:57:04.697Z,4.70
2022-08-02T02:59:35.982Z,3.95
2022-08-02T03:02:04.912Z,4.13
2022-08-02T03:04:35.960Z,3.50
2022-08-02T03:07:21.435Z,4.22
2022-08-02T03:09:54.144Z,4.40
2022-08-02T03:12:28.722Z,3.75
2022-08-02T03:15:06.498Z,4.72
2022-08-02T03:17:46.731Z,4.32
2022-08-02T03:20:17.025Z,4.47
2022-08-02T03:22:45.033Z,4.57
2022-08-02T03:25:13.218Z,4.38
2022-08-02T03:27:41.433Z,4.30
2022-08-02T03:30:10.885Z,5.10
2022-08-02T03:32:41.845Z,4.85
2022-08-02T03:35:16.595Z,4.93
2022-08-02T03:37:46.123Z,4.65
2022-08-02T03:40:13.973Z,5.50
2022-08-02T03:42:42.026Z,4.60
2022-08-02T03:45:12.497Z,4.47
2022-08-02T03:47:40.501Z,4.82
2022-08-02T03:50:12.614Z,5.22
2022-08-02T03:52:45.494Z,5.32
2022-08-02T03:55:13.711Z,5.60
2022-08-02T03:57:42.942Z,4.75
2022-08-02T04:00:12.445Z,5.00
2022-08-02T04:02:40.242Z,4.85
2022-08-02T04:05:07.824Z,4.88
2022-08-02T04:08:34.266Z,4.72
2022-08-02T04:10:22.356Z,4.00
2022-08-02T04:12:49.756Z,4.43
2022-08-02T04:15:17.442Z,3.92
2022-08-02T04:17:51.444Z,4.30
2022-08-02T04:20:22.952Z,3.85
2022-08-02T04:25:34.441Z,4.30
2022-08-02T04:28:16.636Z,3.88
2022-08-02T04:30:45.873Z,4.55
2022-08-02T04:33:13.818Z,3.55
2022-08-02T04:35:45.468Z,3.40
2022-08-02T04:38:16.018Z,3.42
2022-08-02T04:40:54.717Z,3.95
2022-08-02T04:43:23.055Z,3.78
2022-08-02T04:45:52.938Z,3.72
2022-08-02T04:48:21.336Z,3.30
2022-08-02T04:50:48.740Z,5.07
2022-08-02T04:53:16.092Z,3.22
2022-08-02T04:55:43.371Z,3.58
2022-08-02T04:58:38.154Z,3.75
2022-08-02T05:00:58.101Z,4.80
2022-08-02T05:03:25.460Z,3.78
2022-08-02T05:05:52.645Z,4.80
2022-08-02T05:08:20.293Z,4.45
2022-08-02T05:10:47.677Z,5.05
2022-08-02T05:13:14.846Z,4.47
2022-08-02T05:15:41.978Z,4.63
2022-08-02T05:18:09.462Z,4.15
2022-08-02T05:20:37.097Z,4.60
2022-08-02T05:23:04.300Z,4.80
2022-08-02T05:25:31.554Z,4.97
2022-08-02T05:27:59.139Z,4.97
2022-08-02T05:30:26.387Z,4.15
2022-08-02T05:32:53.538Z,4.57
2022-08-02T05:35:22.526Z,4.70
2022-08-02T05:37:51.386Z,4.15
2022-08-02T05:40:25.662Z,5.40
2022-08-02T05:42:53.955Z,5.30
2022-08-02T05:45:21.306Z,4.45
2022-08-02T05:47:48.560Z,4.50
2022-08-02T05:50:15.919Z,4.13
2022-08-02T05:52:49.015Z,5.78
2022-08-02T05:58:06.265Z,3.78
2022-08-02T06:00:36.619Z,3.20
2022-08-02T06:03:10.029Z,4.25
2022-08-02T06:09:01.097Z,5.13
2022-08-02T06:11:36.914Z,4.90
2022-08-02T06:14:08.151Z,3.15
2022-08-02T06:16:37.652Z,4.70
2022-08-02T06:19:09.462Z,4.60
2022-08-02T06:22:33.089Z,4.82
2022-08-02T06:24:26.985Z,4.47
2022-08-02T06:26:56.576Z,3.35
2022-08-02T06:29:24.925Z,4.55
2022-08-02T06:31:54.301Z,3.33
2022-08-02T06:34:21.440Z,4.28
2022-08-02T06:37:11.724Z,4.25
2022-08-02T06:39:46.696Z,5.18
2022-08-02T06:42:18.038Z,4.20
2022-08-02T06:44:57.841Z,3.60
2022-08-02T06:47:26.581Z,3.97
2022-08-02T06:49:54.840Z,4.03
2022-08-02T06:52:28.889Z,3.80
2022-08-02T06:54:58.813Z,3.40
2022-08-02T06:57:26.400Z,3.75
2022-08-02T06:59:54.013Z,3.20
2022-08-02T07:02:21.717Z,3.88
2022-08-02T07:04:49.062Z,3.50
2022-08-02T07:07:16.331Z,3.83
2022-08-02T07:10:00.956Z,4.05
2022-08-02T07:12:34.284Z,4.00
2022-08-02T07:15:05.585Z,3.40
2022-08-02T07:17:33.624Z,3.17
2022-08-02T07:20:01.164Z,3.28
2022-08-02T07:22:29.733Z,2.80
2022-08-02T07:24:59.260Z,3.13
2022-08-02T07:27:27.181Z,3.30
2022-08-02T07:29:54.782Z,3.00
2022-08-02T07:32:24.881Z,2.95
2022-08-02T07:34:54.159Z,2.25
2022-08-02T07:37:53.472Z,2.10
2022-08-02T07:40:15.286Z,2.20
2022-08-02T07:42:49.206Z,2.55
2022-08-02T07:45:16.419Z,2.13
2022-08-02T07:47:45.281Z,2.65
2022-08-02T07:50:14.435Z,2.30
2022-08-02T07:52:42.760Z,2.28
2022-08-02T07:55:11.269Z,2.00
2022-08-02T07:57:45.491Z,1.90
2022-08-02T08:00:14.239Z,2.00
2022-08-02T08:02:41.655Z,1.90
2022-08-02T08:05:09.454Z,2.47
2022-08-02T08:07:36.610Z,1.67
2022-08-02T08:10:06.790Z,1.80
2022-08-02T08:12:34.584Z,1.63
2022-08-02T08:15:01.987Z,1.52
2022-08-02T08:17:31.247Z,1.88
2022-08-02T08:19:58.443Z,1.63
2022-08-02T08:22:25.575Z,1.70
2022-08-02T08:24:52.708Z,1.40
2022-08-02T08:27:22.676Z,1.50
2022-08-02T08:29:50.162Z,1.77
2022-08-02T08:32:18.704Z,2.03
2022-08-02T08:34:47.356Z,1.63
2022-08-02T08:37:17.683Z,1.80
2022-08-02T08:39:56.825Z,1.63
2022-08-02T08:42:25.046Z,1.67
2022-08-02T08:44:52.331Z,1.70
2022-08-02T08:47:21.146Z,1.60
2022-08-02T08:49:53.471Z,1.70
2022-08-02T08:52:26.845Z,1.60
2022-08-02T08:54:55.704Z,1.45
2022-08-02T08:57:29.745Z,1.55
2022-08-02T08:59:57.308Z,1.35
2022-08-02T09:02:28.136Z,1.70
2022-08-02T09:04:56.043Z,1.67
2022-08-02T09:07:23.809Z,1.70
2022-08-02T09:09:50.874Z,1.67
2022-08-02T09:12:25.271Z,1.48
2022-08-02T09:14:52.726Z,2.15
2022-08-02T09:17:21.401Z,1.40
2022-08-02T09:20:07.648Z,1.58
2022-08-02T09:22:35.005Z,1.50
2022-08-02T09:25:18.560Z,1.60
2022-08-02T09:27:48.616Z,1.90
2022-08-02T09:30:17.090Z,1.70
2022-08-02T09:32:46.874Z,1.50
2022-08-02T09:35:15.555Z,1.45
2022-08-02T09:37:45.706Z,1.40
2022-08-02T09:40:15.883Z,1.40
2022-08-02T09:42:59.542Z,1.70
2022-08-02T09:45:34.881Z,1.92
2022-08-02T09:48:09.608Z,1.83
2022-08-02T09:50:38.448Z,1.60
2022-08-02T09:53:06.257Z,1.30
2022-08-02T09:55:33.513Z,1.48
2022-08-02T09:58:18.333Z,1.30
2022-08-02T10:00:55.970Z,1.55
2022-08-02T10:03:23.405Z,1.40
2022-08-02T10:06:03.015Z,1.52
2022-08-02T10:08:32.864Z,1.50
2022-08-02T10:11:02.146Z,1.30
2022-08-02T10:13:34.790Z,1.40
2022-08-02T10:18:39.943Z,1.35
2022-08-02T10:21:15.641Z,1.48
2022-08-02T10:23:44.840Z,1.20
2022-08-02T10:26:17.373Z,1.75
2022-08-02T10:28:48.324Z,1.67
2022-08-02T10:31:20.353Z,1.70
2022-08-02T10:33:50.367Z,1.60
2022-08-02T10:36:19.518Z,2.03
2022-08-02T10:38:47.546Z,2.80
2022-08-02T10:41:14.818Z,4.57
2022-08-02T10:43:47.986Z,3.50
2022-08-02T10:46:25.688Z,3.47
2022-08-02T10:52:02.016Z,1.95
2022-08-02T10:54:35.472Z,2.35
2022-08-02T10:57:03.306Z,1.73
2022-08-02T10:59:36.332Z,1.92
2022-08-02T11:02:06.717Z,1.63
2022-08-02T11:04:39.774Z,1.88
2022-08-02T11:07:18.361Z,1.58
2022-08-02T11:09:47.200Z,1.77
2022-08-02T11:12:19.551Z,1.58
2022-08-02T11:15:04.182Z,1.65
2022-08-02T11:17:55.275Z,1.50
2022-08-02T11:20:24.531Z,1.50
2022-08-02T11:22:53.454Z,1.77
2022-08-02T11:25:24.071Z,1.33
2022-08-02T11:28:12.551Z,1.65
2022-08-02T11:30:40.100Z,1.40
2022-08-02T11:33:07.410Z,1.20
2022-08-02T11:35:39.027Z,1.30
2022-08-02T11:38:21.150Z,1.35
2022-08-02T11:40:49.591Z,1.40
2022-08-02T11:43:30.952Z,1.70
2022-08-02T11:45:59.097Z,1.48
2022-08-02T11:48:38.164Z,1.50
2022-08-02T11:51:19.124Z,1.60
2022-08-02T11:53:54.741Z,1.50
2022-08-02T11:56:35.721Z,1.67
2022-08-02T11:59:10.463Z,1.65
2022-08-02T12:01:46.154Z,1.60
2022-08-02T12:04:19.196Z,1.40
2022-08-02T12:09:23.481Z,1.60
2022-08-02T12:11:51.310Z,1.30
2022-08-02T12:14:19.054Z,1.40
2022-08-02T12:17:06.359Z,1.40
2022-08-02T12:19:34.786Z,1.50
2022-08-02T12:22:14.490Z,1.40
2022-08-02T12:24:44.828Z,1.60
2022-08-02T12:27:37.302Z,1.75
2022-08-02T12:30:07.075Z,1.70
2022-08-02T12:32:35.150Z,1.40
2022-08-02T12:35:15.036Z,1.63
2022-08-02T12:37:54.190Z,2.05
2022-08-02T12:40:25.725Z,1.35
2022-08-02T12:43:05.085Z,1.63
2022-08-02T12:45:49.101Z,2.03
2022-08-02T12:48:36.641Z,1.80
2022-08-02T12:51:56.357Z,1.50
2022-08-02T12:54:31.755Z,1.90
2022-08-02T12:57:14.008Z,1.50
2022-08-02T12:59:44.604Z,1.90
2022-08-02T13:02:13.810Z,1.95
2022-08-02T13:04:41.687Z,1.95
2022-08-02T13:07:18.165Z,1.80
2022-08-02T13:09:46.976Z,1.50
2022-08-02T13:12:14.966Z,1.67
2022-08-02T13:14:43.001Z,2.65
2022-08-02T13:17:11.567Z,1.98
2022-08-02T13:19:39.171Z,1.77
2022-08-02T13:22:08.616Z,1.70
2022-08-02T13:24:55.185Z,1.80
2022-08-02T13:27:25.505Z,1.60
2022-08-02T13:29:54.356Z,1.75
2022-08-02T13:32:22.295Z,1.92
2022-08-02T13:34:49.808Z,1.70
2022-08-02T13:37:19.579Z,1.80
2022-08-02T13:40:05.547Z,1.65
2022-08-02T13:42:34.419Z,2.08
2022-08-02T13:45:11.708Z,1.58
2022-08-02T13:48:03.830Z,1.90
2022-08-02T13:50:30.424Z,1.60
2022-08-02T13:52:57.604Z,1.75
2022-08-02T13:55:25.152Z,1.70
2022-08-02T13:57:53.682Z,2.65
2022-08-02T14:00:35.267Z,2.42
2022-08-02T14:03:07.562Z,1.88
2022-08-02T14:05:48.174Z,1.70
2022-08-02T14:08:18.752Z,2.50
2022-08-02T14:10:50.054Z,1.67
2022-08-02T14:13:18.556Z,2.03
2022-08-02T14:15:46.198Z,1.70
2022-08-02T14:18:14.992Z,1.58
2022-08-02T14:20:43.460Z,1.67
2022-08-02T14:23:10.985Z,1.65
2022-08-02T14:25:38.646Z,1.77
2022-08-02T14:28:06.158Z,1.55
2022-08-02T14:30:33.716Z,1.98
2022-08-02T14:33:01.044Z,1.75
2022-08-02T14:35:28.151Z,1.80
2022-08-02T14:37:55.270Z,1.98
2022-08-02T14:40:27.882Z,1.67
2022-08-02T14:43:02.509Z,2.10
2022-08-02T14:45:40.991Z,1.60
2022-08-02T14:48:10.578Z,1.95
2022-08-02T14:50:37.702Z,1.90
2022-08-02T14:53:04.834Z,1.90
2022-08-02T14:55:32.006Z,1.90
2022-08-02T14:57:59.200Z,1.88
2022-08-02T15:00:26.324Z,1.95
2022-08-02T15:02:56.082Z,2.05
2022-08-02T15:05:26.695Z,1.90
2022-08-02T15:07:53.832Z,2.10
2022-08-02T15:10:21.102Z,1.55
2022-08-02T15:12:48.327Z,2.00
2022-08-02T15:15:15.508Z,1.60
2022-08-02T15:17:42.649Z,1.90
2022-08-02T15:20:24.383Z,1.98
2022-08-02T15:22:52.993Z,2.47
2022-08-02T15:25:21.294Z,2.40
2022-08-02T15:27:48.819Z,2.80
2022-08-02T15:30:16.060Z,1.77
2022-08-02T15:32:53.162Z,2.03
2022-08-02T15:35:21.164Z,2.08
2022-08-02T15:37:48.379Z,2.90
2022-08-02T15:40:15.588Z,2.00
2022-08-02T15:42:43.934Z,1.65
2022-08-02T15:45:15.828Z,2.63
2022-08-02T15:47:48.013Z,1.90
2022-08-02T15:50:18.850Z,2.08
2022-08-02T15:52:46.284Z,1.70
2022-08-02T15:55:14.465Z,2.30
2022-08-02T15:57:41.854Z,2.15
2022-08-02T16:00:18.111Z,2.22
2022-08-02T16:02:47.724Z,1.60
2022-08-02T16:05:18.219Z,1.95
2022-08-02T16:07:46.041Z,1.83
2022-08-02T16:10:13.718Z,2.08
2022-08-02T16:12:40.885Z,1.88
2022-08-02T16:15:08.646Z,2.20
2022-08-02T16:17:51.945Z,2.22
2022-08-02T16:20:22.476Z,2.30
2022-08-02T16:22:52.384Z,1.95
2022-08-02T16:25:20.898Z,2.00
2022-08-02T16:28:06.842Z,2.28
2022-08-02T16:30:35.588Z,1.90
2022-08-02T16:33:03.454Z,2.40
2022-08-02T16:35:30.722Z,2.17
2022-08-02T16:37:57.953Z,2.28
2022-08-02T16:40:25.554Z,2.00
2022-08-02T16:42:52.774Z,2.30
2022-08-02T16:45:21.403Z,2.20
2022-08-02T16:50:38.022Z,2.40
2022-08-02T16:53:07.465Z,2.50
2022-08-02T16:55:35.109Z,1.85
2022-08-02T16:58:02.350Z,2.10
2022-08-02T17:00:29.967Z,2.70
2022-08-02T17:02:59.825Z,2.78
2022-08-02T17:05:56.313Z,3.35
2022-08-02T17:08:24.577Z,3.03
2022-08-02T17:11:03.649Z,2.72
2022-08-02T17:13:34.217Z,3.42
2022-08-02T17:16:20.861Z,5.10
2022-08-02T17:18:54.146Z,2.92
2022-08-02T17:21:22.142Z,3.45
2022-08-02T17:24:05.793Z,2.90
2022-08-02T17:29:19.086Z,3.60
2022-08-02T17:32:05.528Z,3.58
2022-08-02T17:34:37.113Z,4.45
2022-08-02T17:37:05.748Z,4.03
2022-08-02T17:39:44.009Z,4.38
2022-08-02T17:42:20.408Z,4.68
2022-08-02T17:45:07.109Z,3.90
2022-08-02T17:47:43.231Z,4.68
2022-08-02T17:50:30.411Z,3.80
2022-08-02T17:52:57.794Z,4.40
2022-08-02T17:55:25.261Z,4.57
2022-08-02T17:57:57.167Z,4.45
2022-08-02T18:00:33.739Z,4.50
2022-08-02T18:03:05.897Z,4.70
2022-08-02T18:05:40.359Z,4.38
2022-08-02T18:08:24.129Z,4.80
2022-08-02T18:10:55.925Z,7.05
2022-08-02T18:13:23.707Z,8.00
2022-08-02T18:15:57.371Z,6.18
2022-08-02T18:18:30.085Z,5.55
2022-08-02T18:21:15.706Z,5.40
2022-08-02T18:23:48.799Z,5.90
2022-08-02T18:26:33.693Z,5.05
2022-08-02T18:29:03.886Z,5.22
2022-08-02T18:31:39.573Z,5.68
2022-08-02T18:34:07.836Z,5.60
2022-08-02T18:36:35.090Z,5.30
2022-08-02T18:39:08.121Z,5.40
2022-08-02T18:41:51.075Z,5.57
2022-08-02T18:44:18.799Z,5.85
2022-08-02T18:46:46.581Z,5.28
2022-08-02T18:49:16.829Z,4.63
2022-08-02T18:51:44.768Z,5.10
2022-08-02T18:54:12.186Z,5.10
2022-08-02T18:56:40.343Z,5.53
2022-08-02T18:59:14.601Z,5.20
2022-08-02T19:01:50.634Z,5.10
2022-08-02T19:04:27.426Z,5.40
2022-08-02T19:06:56.741Z,5.10
2022-08-02T19:09:34.834Z,6.25
2022-08-02T19:14:44.696Z,5.43
2022-08-02T19:17:53.365Z,5.22
2022-08-02T19:19:59.263Z,5.45
2022-08-02T19:22:27.324Z,5.75
2022-08-02T19:25:01.481Z,6.10
2022-08-02T19:27:32.574Z,5.57
2022-08-02T19:32:59.659Z,5.93
2022-08-02T19:35:34.444Z,6.57
2022-08-02T19:38:07.643Z,6.72
2022-08-02T19:40:37.089Z,7.63
2022-08-02T19:44:26.590Z,7.32
2022-08-02T19:45:56.789Z,6.97
2022-08-02T19:48:26.809Z,6.93
2022-08-02T19:53:46.718Z,7.75
2022-08-02T19:56:21.217Z,8.88
2022-08-02T19:58:54.519Z,12.02
2022-08-02T20:01:36.951Z,8.27
2022-08-02T20:04:13.401Z,8.65
2022-08-02T20:06:45.346Z,9.27
2022-08-02T20:09:16.380Z,9.80
2022-08-02T20:11:45.578Z,10.02
2022-08-02T20:14:13.536Z,9.45
2022-08-02T20:16:41.799Z,10.88
2022-08-02T20:19:09.261Z,9.60
2022-08-02T20:21:38.241Z,9.05
2022-08-02T20:24:10.987Z,9.60
2022-08-02T20:26:47.690Z,8.90
2022-08-02T20:29:43.648Z,8.80
2022-08-02T20:32:04.520Z,9.10
2022-08-02T20:34:31.865Z,9.10
2022-08-02T20:37:55.934Z,9.07
2022-08-02T20:39:48.462Z,9.13
2022-08-02T20:42:23.201Z,9.18
2022-08-02T20:44:55.508Z,8.45
2022-08-02T20:50:31.340Z,9.00
2022-08-02T20:53:00.584Z,9.23
2022-08-02T20:55:30.996Z,8.75
2022-08-02T20:58:01.793Z,9.55
2022-08-02T21:00:30.523Z,8.85
2022-08-02T21:05:54.954Z,8.20
2022-08-02T21:08:23.515Z,9.38
2022-08-02T21:10:55.318Z,8.57
2022-08-02T21:13:25.929Z,8.90
2022-08-02T21:15:59.675Z,14.40
2022-08-02T21:18:40.178Z,8.75
2022-08-02T21:21:09.959Z,10.57
2022-08-02T21:23:38.078Z,9.15
2022-08-02T21:26:09.014Z,9.45
2022-08-02T21:28:43.671Z,9.82
2022-08-02T21:31:15.876Z,9.80
2022-08-02T21:36:33.419Z,9.98
2022-08-02T21:39:09.228Z,10.10
2022-08-02T21:41:46.365Z,9.95
2022-08-02T21:44:16.485Z,9.75
2022-08-02T21:46:49.798Z,10.65
2022-08-02T21:49:40.592Z,10.02
2022-08-02T21:52:10.157Z,10.32
2022-08-02T21:54:40.336Z,9.80
2022-08-02T21:57:15.183Z,10.30
2022-08-02T21:59:45.288Z,10.27
2022-08-02T22:02:13.892Z,9.45
2022-08-02T22:04:48.115Z,9.90
2022-08-02T22:07:17.762Z,9.52
2022-08-02T22:09:51.616Z,9.85
2022-08-02T22:12:20.530Z,9.68
2022-08-02T22:17:53.092Z,8.90
2022-08-02T22:20:29.294Z,9.40
2022-08-02T22:22:56.739Z,10.10
2022-08-02T22:25:31.448Z,7.65
2022-08-02T22:28:34.750Z,8.23
2022-08-02T22:30:54.398Z,6.80
2022-08-02T22:33:42.377Z,5.60
2022-08-02T22:36:15.310Z,8.10
2022-08-02T22:38:44.650Z,5.38
2022-08-02T22:41:16.142Z,6.72
2022-08-02T22:43:43.870Z,6.25
2022-08-02T22:46:15.518Z,6.80
2022-08-02T22:48:44.674Z,9.43
2022-08-02T22:51:14.051Z,6.22
2022-08-02T22:53:43.201Z,6.55
2022-08-02T22:56:11.786Z,11.50
2022-08-02T22:58:50.792Z,2.58
2022-08-02T22:58:56.233Z,9.23
2022-08-02T22:59:03.015Z,9.70
2022-08-02T22:59:05.991Z,6.70
2022-08-02T22:59:07.157Z,8.80
2022-08-02T22:59:10.807Z,7.72
2022-08-02T23:01:26.465Z,9.88
2022-08-02T23:03:53.761Z,9.63
2022-08-02T23:06:22.666Z,6.82
2022-08-02T23:08:52.034Z,6.63
2022-08-02T23:11:20.444Z,9.43
2022-08-02T23:13:47.781Z,8.60
2022-08-02T23:16:38.264Z,9.50
2022-08-02T23:19:24.713Z,8.02
2022-08-02T23:22:01.654Z,8.60
2022-08-02T23:24:33.194Z,8.45
2022-08-02T23:27:01.359Z,8.30
2022-08-02T23:29:28.589Z,7.45
2022-08-02T23:31:55.833Z,7.50
2022-08-02T23:34:23.004Z,7.10
2022-08-02T23:36:50.084Z,7.03
2022-08-02T23:39:17.213Z,7.03
2022-08-02T23:41:44.488Z,8.43
2022-08-02T23:44:17.536Z,6.70
2022-08-02T23:46:46.370Z,7.28
2022-08-02T23:49:14.654Z,6.57
2022-08-02T23:51:42.163Z,5.95
2022-08-02T23:54:10.082Z,6.05
2022-08-02T23:56:39.245Z,6.25
2022-08-02T23:59:09.653Z,5.80
